Time;durP1;ratioP1;P1;durP2;ratioP2;P2;SDS_P1;SDS_P2;PMS_P1;PMS_P2;Temp;Humidity;BMP_temperature;BMP_pressure;BME280_temperature;BME280_humidity;BME280_pressure;Samples;Min_cycle;Max_cycle;Signal;HPM_P1;HPM_P2
2021/07/09 00:00:30;;;;;;;16.00;14.18;;;19.00;99.90;;;;;;2106854;28;20024;-69
2021/07/09 00:01:30;;;;;;;20.55;15.63;;;19.00;99.90;;;;;;2106094;28;20020;-69
2021/07/09 00:02:32;;;;;;;16.75;14.68;;;19.10;99.90;;;;;;2106889;28;20463;-69
2021/07/09 00:03:34;;;;;;;17.08;12.95;;;19.10;99.90;;;;;;2106757;28;20474;-69
2021/07/09 00:04:35;;;;;;;15.93;14.30;;;19.10;99.90;;;;;;2107025;28;20458;-69
2021/07/09 00:05:35;;;;;;;14.95;13.48;;;19.10;99.90;;;;;;2106822;28;20051;-69
2021/07/09 00:06:36;;;;;;;14.63;12.85;;;19.10;99.90;;;;;;2107030;28;20020;-69
2021/07/09 00:07:37;;;;;;;15.68;12.13;;;19.10;99.90;;;;;;2106738;28;20363;-69
2021/07/09 00:08:37;;;;;;;16.35;12.80;;;19.10;99.90;;;;;;2106259;28;20047;-69
2021/07/09 00:09:38;;;;;;;14.57;12.90;;;19.10;99.90;;;;;;2106066;28;20110;-69
2021/07/09 00:10:38;;;;;;;13.32;11.88;;;19.10;99.90;;;;;;2106428;28;20016;-69
2021/07/09 00:11:42;;;;;;;13.80;12.02;;;19.10;99.90;;;;;;2106088;28;20398;-69
2021/07/09 00:12:42;;;;;;;12.93;11.63;;;19.10;99.90;;;;;;2106831;28;20047;-69
2021/07/09 00:13:43;;;;;;;19.50;13.73;;;19.10;99.90;;;;;;2106510;28;20032;-69
2021/07/09 00:14:44;;;;;;;14.10;12.63;;;19.20;99.90;;;;;;2107141;28;20016;-69
2021/07/09 00:15:45;;;;;;;17.90;13.70;;;19.20;99.90;;;;;;2106570;28;20024;-69
2021/07/09 00:16:47;;;;;;;17.63;15.63;;;19.20;99.90;;;;;;2106726;28;20040;-69
2021/07/09 00:17:48;;;;;;;18.80;16.85;;;19.20;99.90;;;;;;2106369;28;20016;-69
2021/07/09 00:18:48;;;;;;;18.42;16.58;;;19.20;99.90;;;;;;2106917;28;20024;-69
2021/07/09 00:19:49;;;;;;;17.92;12.10;;;19.20;99.90;;;;;;2106520;28;20024;-69
2021/07/09 00:20:50;;;;;;;14.73;11.75;;;19.20;99.90;;;;;;2106505;28;20035;-69
2021/07/09 00:21:50;;;;;;;11.38;10.27;;;19.20;99.90;;;;;;2105911;28;20479;-69
2021/07/09 00:22:51;;;;;;;16.05;14.45;;;19.20;99.90;;;;;;2106776;28;20062;-69
2021/07/09 00:23:52;;;;;;;14.00;12.60;;;19.20;99.90;;;;;;2106591;28;20044;-69
2021/07/09 00:24:52;;;;;;;15.77;14.20;;;19.20;99.90;;;;;;2106760;28;20454;-69
2021/07/09 00:25:53;;;;;;;16.58;14.88;;;19.20;99.90;;;;;;2105901;28;20066;-69
2021/07/09 00:26:54;;;;;;;18.40;12.70;;;19.20;99.90;;;;;;2105813;28;20039;-69
2021/07/09 00:27:54;;;;;;;23.33;14.20;;;19.20;99.90;;;;;;2105836;28;20028;-69
2021/07/09 00:28:57;;;;;;;17.85;14.77;;;19.20;99.90;;;;;;2105912;28;20048;-69
2021/07/09 00:29:58;;;;;;;16.13;14.63;;;19.20;99.90;;;;;;2106604;28;20032;-69
2021/07/09 00:30:59;;;;;;;23.27;14.35;;;19.30;99.90;;;;;;2106382;28;20024;-69
2021/07/09 00:31:59;;;;;;;19.13;17.02;;;19.30;99.90;;;;;;2105853;28;20046;-69
2021/07/09 00:33:00;;;;;;;15.70;14.05;;;19.30;99.90;;;;;;2106407;28;20020;-69
2021/07/09 00:34:02;;;;;;;18.33;14.50;;;19.20;99.90;;;;;;2106926;28;20012;-69
2021/07/09 00:35:03;;;;;;;15.10;13.43;;;19.30;99.90;;;;;;2106419;28;20028;-69
2021/07/09 00:36:04;;;;;;;10.98;9.88;;;19.30;99.90;;;;;;2106566;28;20099;-69
2021/07/09 00:37:05;;;;;;;12.95;10.00;;;19.30;99.90;;;;;;2105870;28;20073;-69
2021/07/09 00:38:05;;;;;;;12.48;10.50;;;19.20;99.90;;;;;;2106040;28;20059;-69
2021/07/09 00:39:07;;;;;;;12.55;11.32;;;19.30;99.90;;;;;;2106392;28;20386;-69
2021/07/09 00:40:09;;;;;;;14.88;13.43;;;19.20;99.90;;;;;;2106367;28;20052;-69
2021/07/09 00:41:09;;;;;;;14.85;13.25;;;19.20;99.90;;;;;;2105564;28;20399;-69
2021/07/09 00:42:10;;;;;;;14.90;13.40;;;19.20;99.90;;;;;;2105447;28;20024;-69
2021/07/09 00:43:11;;;;;;;15.48;13.90;;;19.30;99.90;;;;;;2106366;28;20531;-69
2021/07/09 00:44:12;;;;;;;12.07;10.98;;;19.30;99.90;;;;;;2106575;28;20024;-69
2021/07/09 00:45:13;;;;;;;13.30;12.02;;;19.30;99.90;;;;;;2106653;28;20031;-69
2021/07/09 00:46:14;;;;;;;13.35;12.00;;;19.20;99.90;;;;;;2106579;28;20035;-69
2021/07/09 00:47:14;;;;;;;14.65;13.35;;;19.20;99.90;;;;;;2106391;28;20039;-69
2021/07/09 00:48:15;;;;;;;15.07;13.63;;;19.20;99.90;;;;;;2106410;28;20553;-69
2021/07/09 00:49:16;;;;;;;14.70;12.77;;;19.20;99.90;;;;;;2105888;28;20031;-69
2021/07/09 00:50:17;;;;;;;13.07;11.75;;;19.20;99.90;;;;;;2106651;28;20024;-69
2021/07/09 00:51:18;;;;;;;13.25;11.80;;;19.30;99.90;;;;;;2106128;28;20036;-69
2021/07/09 00:52:19;;;;;;;12.88;11.63;;;19.20;99.90;;;;;;2106023;28;20481;-69
2021/07/09 00:53:19;;;;;;;13.02;11.88;;;19.20;99.90;;;;;;2106397;28;20051;-69
2021/07/09 00:54:20;;;;;;;13.13;11.93;;;19.20;99.90;;;;;;2106518;28;20024;-69
2021/07/09 00:55:21;;;;;;;14.25;12.82;;;19.20;99.90;;;;;;2106253;28;20093;-69
2021/07/09 00:56:22;;;;;;;12.13;10.93;;;19.20;99.90;;;;;;2097995;28;20017;-69
2021/07/09 00:57:23;;;;;;;15.23;13.75;;;19.20;99.90;;;;;;2101479;28;20523;-69
2021/07/09 00:58:24;;;;;;;16.13;14.45;;;19.20;99.90;;;;;;2106489;28;20024;-69
2021/07/09 00:59:25;;;;;;;14.32;12.80;;;19.20;99.90;;;;;;2106281;28;20035;-69
2021/07/09 01:00:25;;;;;;;13.48;12.15;;;19.30;99.90;;;;;;2107120;28;20096;-69
2021/07/09 01:01:26;;;;;;;13.18;11.82;;;19.20;99.90;;;;;;2105876;28;20064;-69
2021/07/09 01:02:39;;;;;;;13.10;11.75;;;19.30;99.90;;;;;;2106263;28;20031;-69
2021/07/09 01:03:40;;;;;;;20.27;13.88;;;19.20;99.90;;;;;;2104437;28;20043;-69
2021/07/09 01:04:41;;;;;;;15.00;13.50;;;19.20;99.90;;;;;;2106254;28;20073;-69
2021/07/09 01:05:42;;;;;;;12.00;10.73;;;19.20;99.90;;;;;;2106223;28;20103;-69
2021/07/09 01:06:42;;;;;;;13.23;11.95;;;19.20;99.90;;;;;;2106393;28;20059;-69
2021/07/09 01:07:44;;;;;;;15.02;13.65;;;19.20;99.90;;;;;;2105530;28;20150;-69
2021/07/09 01:08:45;;;;;;;15.68;13.90;;;19.20;99.90;;;;;;2105741;28;20024;-69
2021/07/09 01:09:47;;;;;;;14.98;13.60;;;19.20;99.90;;;;;;2106249;28;20027;-69
2021/07/09 01:10:48;;;;;;;15.95;14.45;;;19.20;99.90;;;;;;2106090;28;20107;-69
2021/07/09 01:11:50;;;;;;;15.90;14.15;;;19.20;99.90;;;;;;2105530;28;20039;-69
2021/07/09 01:12:51;;;;;;;14.55;12.02;;;19.30;99.90;;;;;;2106537;28;20121;-69
2021/07/09 01:13:52;;;;;;;12.60;11.10;;;19.20;99.90;;;;;;2105826;28;20113;-69
2021/07/09 01:14:53;;;;;;;15.38;13.63;;;19.20;99.90;;;;;;2106307;28;20039;-69
2021/07/09 01:15:54;;;;;;;14.32;13.13;;;19.20;99.90;;;;;;2106148;28;20133;-69
2021/07/09 01:16:55;;;;;;;16.75;14.20;;;19.20;99.90;;;;;;2106274;28;20032;-69
2021/07/09 01:17:56;;;;;;;14.82;13.35;;;19.20;99.90;;;;;;2113838;28;20035;-69
2021/07/09 01:18:57;;;;;;;15.13;13.50;;;19.20;99.90;;;;;;2113818;28;20032;-69
2021/07/09 01:19:59;;;;;;;12.27;10.90;;;19.20;99.90;;;;;;2106329;28;20028;-69
2021/07/09 01:21:02;;;;;;;15.10;11.60;;;19.20;99.90;;;;;;2106126;28;20065;-69
2021/07/09 01:22:05;;;;;;;16.60;13.77;;;19.20;99.90;;;;;;2105489;28;20016;-69
2021/07/09 01:23:07;;;;;;;14.75;13.35;;;19.20;99.90;;;;;;2106217;28;20085;-69
2021/07/09 01:24:08;;;;;;;13.82;12.40;;;19.20;99.90;;;;;;2106086;28;20070;-69
2021/07/09 01:25:14;;;;;;;15.00;13.50;;;19.20;99.90;;;;;;2106435;28;20025;-69
2021/07/09 01:26:14;;;;;;;14.27;12.65;;;19.20;99.90;;;;;;2106029;28;20026;-69
2021/07/09 01:27:16;;;;;;;11.30;10.20;;;19.20;99.90;;;;;;2106271;28;20099;-69
2021/07/09 01:28:17;;;;;;;14.82;13.40;;;19.20;99.90;;;;;;2106089;28;20111;-69
2021/07/09 01:29:17;;;;;;;15.55;14.00;;;19.20;99.90;;;;;;2105982;28;20032;-69
2021/07/09 01:30:21;;;;;;;15.90;14.23;;;19.20;99.90;;;;;;2106052;28;20020;-69
2021/07/09 01:31:22;;;;;;;16.77;15.07;;;19.20;99.90;;;;;;2105933;28;20080;-69
2021/07/09 01:32:22;;;;;;;17.33;15.55;;;19.20;99.90;;;;;;2105749;28;20077;-69
2021/07/09 01:33:23;;;;;;;16.77;15.07;;;19.20;99.90;;;;;;2106187;28;20103;-69
2021/07/09 01:34:23;;;;;;;14.68;13.27;;;19.20;99.90;;;;;;2106039;28;20052;-69
2021/07/09 01:35:26;;;;;;;16.00;14.45;;;19.20;99.90;;;;;;2106341;28;20024;-69
2021/07/09 01:36:26;;;;;;;15.63;13.95;;;19.20;99.90;;;;;;2105988;28;20036;-69
2021/07/09 01:37:27;;;;;;;18.17;13.60;;;19.20;99.90;;;;;;2106158;28;20032;-69
2021/07/09 01:38:27;;;;;;;15.75;13.32;;;19.20;99.90;;;;;;2106023;28;20024;-69
2021/07/09 01:39:28;;;;;;;14.60;13.20;;;19.20;99.90;;;;;;2106250;28;20460;-69
2021/07/09 01:40:29;;;;;;;14.57;13.18;;;19.20;99.90;;;;;;2105946;28;20069;-69
2021/07/09 01:41:30;;;;;;;15.05;13.45;;;19.20;99.90;;;;;;2105662;28;20062;-69
2021/07/09 01:42:31;;;;;;;19.52;14.88;;;19.20;99.90;;;;;;2105136;28;20042;-69
2021/07/09 01:43:32;;;;;;;14.88;13.40;;;19.20;99.90;;;;;;2105458;28;20035;-69
2021/07/09 01:44:35;;;;;;;15.40;13.80;;;19.20;99.90;;;;;;2105372;28;20111;-69
2021/07/09 01:45:36;;;;;;;17.92;14.38;;;19.20;99.90;;;;;;2105468;28;20016;-69
2021/07/09 01:46:37;;;;;;;20.73;12.63;;;19.20;99.90;;;;;;2106213;28;20073;-69
2021/07/09 01:47:38;;;;;;;13.40;12.10;;;19.20;99.90;;;;;;2106135;28;20024;-69
2021/07/09 01:48:39;;;;;;;13.20;11.77;;;19.20;99.90;;;;;;2105907;28;20023;-69
2021/07/09 01:50:09;;;;;;;15.65;14.23;;;19.20;99.90;;;;;;2106239;28;20095;-69
2021/07/09 01:51:10;;;;;;;14.30;12.60;;;19.10;99.90;;;;;;2090847;28;20041;-69
2021/07/09 01:52:11;;;;;;;12.32;11.15;;;19.10;99.90;;;;;;2097654;28;20059;-69
2021/07/09 01:53:12;;;;;;;14.02;12.40;;;19.10;99.90;;;;;;2106150;28;20523;-69
2021/07/09 01:54:14;;;;;;;11.13;10.02;;;19.10;99.90;;;;;;2106018;28;20024;-69
2021/07/09 01:55:16;;;;;;;12.93;11.75;;;19.10;99.90;;;;;;2105953;28;20034;-69
2021/07/09 01:56:16;;;;;;;13.65;12.23;;;19.10;99.90;;;;;;2105973;28;20032;-69
2021/07/09 01:57:17;;;;;;;13.00;11.68;;;19.10;99.90;;;;;;2105968;28;20087;-69
2021/07/09 01:58:18;;;;;;;9.25;7.57;;;19.10;99.90;;;;;;2106109;28;20433;-69
2021/07/09 01:59:18;;;;;;;9.30;8.50;;;19.10;99.90;;;;;;2105753;28;20036;-69
2021/07/09 02:00:22;;;;;;;11.43;10.23;;;19.10;99.90;;;;;;2105116;28;20024;-69
2021/07/09 02:01:23;;;;;;;11.52;10.40;;;19.10;99.90;;;;;;2104410;28;20020;-69
2021/07/09 02:02:25;;;;;;;13.57;12.13;;;19.10;99.90;;;;;;2105251;28;20119;-69
2021/07/09 02:03:25;;;;;;;12.52;11.32;;;19.10;99.90;;;;;;2105800;28;20043;-69
2021/07/09 02:04:26;;;;;;;12.45;10.35;;;19.10;99.90;;;;;;2106070;28;20052;-69
2021/07/09 02:05:26;;;;;;;11.55;10.45;;;19.10;99.90;;;;;;2105857;28;20028;-69
2021/07/09 02:06:27;;;;;;;11.85;10.60;;;19.10;99.90;;;;;;2106080;28;20458;-69
2021/07/09 02:07:28;;;;;;;13.98;9.45;;;19.10;99.90;;;;;;2105905;28;20016;-69
2021/07/09 02:08:28;;;;;;;16.98;11.40;;;19.10;99.90;;;;;;2106008;28;20047;-69
2021/07/09 02:09:29;;;;;;;12.73;10.82;;;19.10;99.90;;;;;;2105881;28;20023;-69
2021/07/09 02:10:32;;;;;;;14.40;12.23;;;19.10;99.90;;;;;;2105776;28;20056;-69
2021/07/09 02:11:33;;;;;;;15.45;10.75;;;19.00;99.90;;;;;;2105378;28;20069;-69
2021/07/09 02:12:34;;;;;;;11.35;10.20;;;19.10;99.90;;;;;;2106333;28;20506;-69
2021/07/09 02:13:35;;;;;;;12.57;11.48;;;19.10;99.90;;;;;;2105430;28;20077;-69
2021/07/09 02:14:35;;;;;;;13.85;12.50;;;19.10;99.90;;;;;;2105911;28;20057;-69
2021/07/09 02:15:46;;;;;;;12.40;11.13;;;19.10;99.90;;;;;;2105983;28;20522;-69
2021/07/09 02:16:47;;;;;;;14.85;10.57;;;19.10;99.90;;;;;;2105169;28;20125;-69
2021/07/09 02:17:47;;;;;;;14.88;13.15;;;19.10;99.90;;;;;;2105211;28;20065;-69
2021/07/09 02:18:48;;;;;;;10.45;9.20;;;19.10;99.90;;;;;;2105857;28;20016;-69
2021/07/09 02:19:49;;;;;;;13.23;11.02;;;19.10;99.90;;;;;;2105598;28;20058;-69
2021/07/09 02:20:50;;;;;;;12.85;11.80;;;19.10;99.90;;;;;;2106127;28;20572;-69
2021/07/09 02:21:53;;;;;;;12.85;11.65;;;19.10;99.90;;;;;;2105158;28;20376;-69
2021/07/09 02:22:55;;;;;;;14.52;13.23;;;19.10;99.90;;;;;;2106073;28;20074;-69
2021/07/09 02:23:56;;;;;;;11.25;10.15;;;19.10;99.90;;;;;;2105650;28;20046;-69
2021/07/09 02:24:56;;;;;;;15.05;11.70;;;19.10;99.90;;;;;;2105806;28;20052;-69
2021/07/09 02:25:57;;;;;;;12.98;11.70;;;19.10;99.90;;;;;;2106040;28;20020;-69
2021/07/09 02:26:59;;;;;;;14.45;12.95;;;19.10;99.90;;;;;;2105653;28;20135;-69
2021/07/09 02:27:59;;;;;;;12.25;11.05;;;19.10;99.90;;;;;;2106150;28;20020;-69
2021/07/09 02:29:00;;;;;;;13.32;12.02;;;19.00;99.90;;;;;;2105606;28;20527;-69
2021/07/09 02:30:03;;;;;;;14.77;13.43;;;19.00;99.90;;;;;;2105716;28;20494;-69
2021/07/09 02:31:03;;;;;;;15.32;13.88;;;19.10;99.90;;;;;;2105676;28;20024;-69
2021/07/09 02:32:07;;;;;;;17.13;15.48;;;19.10;99.90;;;;;;2105497;28;20073;-69
2021/07/09 02:33:08;;;;;;;16.35;14.73;;;19.10;99.90;;;;;;2104765;28;20031;-69
2021/07/09 02:34:08;;;;;;;15.45;13.98;;;19.00;99.90;;;;;;2105239;28;20074;-69
2021/07/09 02:35:12;;;;;;;16.95;15.23;;;19.10;99.90;;;;;;2105684;28;20027;-69
2021/07/09 02:36:12;;;;;;;17.50;15.68;;;19.10;99.90;;;;;;2105941;28;20438;-69
2021/07/09 02:37:13;;;;;;;16.88;15.13;;;19.10;99.90;;;;;;2105862;28;20047;-69
2021/07/09 02:38:13;;;;;;;19.60;15.63;;;19.00;99.90;;;;;;2106088;28;20055;-69
2021/07/09 02:39:14;;;;;;;17.63;13.80;;;19.00;99.90;;;;;;2105636;28;20020;-69
2021/07/09 02:40:21;;;;;;;15.20;13.85;;;19.00;99.90;;;;;;2106023;28;20409;-69
2021/07/09 02:41:21;;;;;;;14.32;12.88;;;19.10;99.90;;;;;;2105570;28;20544;-69
2021/07/09 02:42:22;;;;;;;14.95;13.35;;;19.00;99.90;;;;;;2105494;28;20433;-69
2021/07/09 02:43:22;;;;;;;13.70;11.68;;;19.00;99.90;;;;;;2105691;28;20032;-69
2021/07/09 02:44:24;;;;;;;14.70;13.30;;;19.00;99.90;;;;;;2105525;28;20052;-69
2021/07/09 02:45:26;;;;;;;16.20;13.00;;;19.00;99.90;;;;;;2105692;28;20036;-69
2021/07/09 02:46:27;;;;;;;14.38;12.88;;;19.00;99.90;;;;;;2105830;28;20039;-69
2021/07/09 02:47:27;;;;;;;13.80;12.48;;;19.00;99.90;;;;;;2105813;28;20035;-69
2021/07/09 02:48:28;;;;;;;13.23;10.80;;;19.00;99.90;;;;;;2105897;28;20039;-69
2021/07/09 02:49:28;;;;;;;14.57;13.07;;;19.00;99.90;;;;;;2105603;28;20064;-69
2021/07/09 02:50:29;;;;;;;13.45;11.35;;;19.00;99.90;;;;;;2105733;28;20032;-69
2021/07/09 02:51:30;;;;;;;14.73;13.38;;;19.00;99.90;;;;;;2105402;28;20020;-69
2021/07/09 02:52:30;;;;;;;14.57;13.18;;;19.00;99.90;;;;;;2105429;28;20230;-69
2021/07/09 02:53:31;;;;;;;14.38;12.88;;;19.00;99.90;;;;;;2105674;28;20415;-69
2021/07/09 02:54:31;;;;;;;14.88;13.48;;;19.00;99.90;;;;;;2105861;28;20077;-69
2021/07/09 02:55:32;;;;;;;14.40;12.00;;;19.10;99.90;;;;;;2105649;28;20463;-69
2021/07/09 02:56:32;;;;;;;14.57;13.18;;;19.00;99.90;;;;;;2105920;28;20031;-69
2021/07/09 02:57:34;;;;;;;14.93;13.57;;;19.10;99.90;;;;;;2105656;28;20024;-69
2021/07/09 02:58:34;;;;;;;15.95;12.70;;;19.10;99.90;;;;;;2106018;28;20082;-69
2021/07/09 02:59:35;;;;;;;14.05;12.80;;;19.10;99.90;;;;;;2105503;28;20028;-69
2021/07/09 03:00:36;;;;;;;13.48;11.68;;;19.10;99.90;;;;;;2105389;28;20051;-69
2021/07/09 03:01:40;;;;;;;14.02;12.48;;;19.10;99.90;;;;;;2105072;28;20051;-69
2021/07/09 03:02:41;;;;;;;14.63;13.23;;;19.10;99.90;;;;;;2105829;28;20039;-69
2021/07/09 03:03:42;;;;;;;15.88;13.45;;;19.10;99.90;;;;;;2105540;28;20024;-69
2021/07/09 03:04:42;;;;;;;12.95;11.63;;;19.10;99.90;;;;;;2105867;28;20028;-69
2021/07/09 03:05:43;;;;;;;14.15;12.90;;;19.10;99.90;;;;;;2105621;28;20051;-69
2021/07/09 03:06:43;;;;;;;18.17;14.20;;;19.10;99.90;;;;;;2105994;28;20028;-69
2021/07/09 03:07:44;;;;;;;15.88;12.30;;;19.10;99.90;;;;;;2105825;28;20518;-69
2021/07/09 03:08:44;;;;;;;12.73;11.52;;;19.00;99.90;;;;;;2105515;28;20050;-69
2021/07/09 03:09:45;;;;;;;13.45;12.10;;;19.10;99.90;;;;;;2105898;28;20100;-69
2021/07/09 03:10:46;;;;;;;14.77;13.27;;;19.10;99.90;;;;;;2105474;28;20077;-69
2021/07/09 03:11:46;;;;;;;18.33;15.60;;;19.10;99.90;;;;;;2105174;28;20103;-69
2021/07/09 03:12:47;;;;;;;16.58;14.77;;;19.10;99.90;;;;;;2106951;28;20384;-69
2021/07/09 03:13:47;;;;;;;18.85;16.38;;;19.10;99.90;;;;;;2107439;28;20051;-69
2021/07/09 03:14:48;;;;;;;19.20;17.40;;;19.00;99.90;;;;;;2106907;28;20039;-69
2021/07/09 03:15:48;;;;;;;16.85;15.05;;;19.10;99.90;;;;;;2107333;28;20507;-69
2021/07/09 03:16:49;;;;;;;17.38;14.07;;;19.10;99.90;;;;;;2107043;28;20024;-69
2021/07/09 03:17:49;;;;;;;15.88;14.32;;;19.10;99.90;;;;;;2107340;28;20097;-69
2021/07/09 03:18:50;;;;;;;15.48;13.43;;;19.10;99.90;;;;;;2107135;28;20483;-69
2021/07/09 03:19:51;;;;;;;16.92;14.88;;;19.00;99.90;;;;;;2107335;28;20360;-69
2021/07/09 03:20:52;;;;;;;18.10;16.08;;;19.10;99.90;;;;;;2107314;28;20038;-69
2021/07/09 03:21:53;;;;;;;18.60;16.15;;;19.10;99.90;;;;;;2106374;28;20367;-69
2021/07/09 03:22:53;;;;;;;18.05;16.25;;;19.10;99.90;;;;;;2107078;28;20058;-69
2021/07/09 03:23:54;;;;;;;17.75;15.85;;;19.00;99.90;;;;;;2107218;28;20367;-69
2021/07/09 03:24:55;;;;;;;15.73;14.13;;;19.10;99.90;;;;;;2107022;28;20024;-69
2021/07/09 03:25:57;;;;;;;20.92;13.18;;;19.10;99.90;;;;;;2107311;28;20077;-69
2021/07/09 03:26:58;;;;;;;25.77;16.42;;;19.00;99.90;;;;;;2106923;28;20551;-69
2021/07/09 03:27:59;;;;;;;18.00;13.68;;;19.10;99.90;;;;;;2107294;28;20406;-69
2021/07/09 03:29:00;;;;;;;17.83;15.85;;;19.10;99.90;;;;;;2106979;28;20039;-69
2021/07/09 03:30:00;;;;;;;18.17;16.15;;;19.00;99.90;;;;;;2106794;28;20025;-69
2021/07/09 03:31:01;;;;;;;16.35;13.77;;;19.10;99.90;;;;;;2107013;28;20471;-69
2021/07/09 03:32:02;;;;;;;16.95;13.80;;;19.00;99.90;;;;;;2106647;28;20019;-69
2021/07/09 03:33:02;;;;;;;14.63;13.13;;;19.00;99.90;;;;;;2107099;28;20028;-69
2021/07/09 03:34:03;;;;;;;15.45;13.85;;;19.10;99.90;;;;;;2107109;28;20127;-69
2021/07/09 03:35:06;;;;;;;16.42;14.68;;;19.10;99.90;;;;;;2106928;28;20406;-69
2021/07/09 03:36:06;;;;;;;16.00;14.43;;;19.00;99.90;;;;;;2107146;28;20091;-69
2021/07/09 03:37:07;;;;;;;18.08;15.98;;;19.10;99.90;;;;;;2106943;28;20027;-69
2021/07/09 03:38:07;;;;;;;16.90;15.25;;;19.10;99.90;;;;;;2106341;28;20059;-69
2021/07/09 03:39:08;;;;;;;17.45;15.85;;;19.10;99.90;;;;;;2105993;28;20016;-69
2021/07/09 03:40:09;;;;;;;19.75;15.95;;;19.10;99.90;;;;;;2107058;28;20008;-69
2021/07/09 03:41:10;;;;;;;18.60;13.43;;;19.00;99.90;;;;;;2106833;28;20027;-69
2021/07/09 03:42:11;;;;;;;15.73;13.18;;;19.10;99.90;;;;;;2106559;28;20024;-69
2021/07/09 03:43:11;;;;;;;16.25;14.55;;;19.10;99.90;;;;;;2106902;28;20648;-69
2021/07/09 03:44:12;;;;;;;13.93;12.50;;;19.10;99.90;;;;;;2107138;28;20063;-69
2021/07/09 03:45:13;;;;;;;15.07;13.50;;;19.10;99.90;;;;;;2106850;28;20017;-69
2021/07/09 03:46:14;;;;;;;15.88;14.30;;;19.00;99.90;;;;;;2106982;28;20031;-70
2021/07/09 03:47:14;;;;;;;13.93;12.52;;;19.00;99.90;;;;;;2107223;28;20115;-70
2021/07/09 03:48:15;;;;;;;14.95;13.50;;;19.10;99.90;;;;;;2106953;28;20024;-70
2021/07/09 03:49:15;;;;;;;14.05;12.65;;;19.10;99.90;;;;;;2106893;28;20082;-69
2021/07/09 03:50:16;;;;;;;17.02;15.45;;;19.10;99.90;;;;;;2106797;28;20062;-69
2021/07/09 03:51:16;;;;;;;15.68;14.23;;;19.10;99.90;;;;;;2107042;28;20371;-69
2021/07/09 03:52:17;;;;;;;13.65;12.32;;;19.10;99.90;;;;;;2106322;28;20028;-69
2021/07/09 03:53:20;;;;;;;19.67;15.65;;;19.00;99.90;;;;;;2106330;28;20074;-69
2021/07/09 03:54:20;;;;;;;15.50;14.00;;;19.00;99.90;;;;;;2106237;28;20028;-69
2021/07/09 03:55:21;;;;;;;16.33;14.73;;;19.00;99.90;;;;;;2106938;28;20016;-69
2021/07/09 03:56:23;;;;;;;14.88;13.32;;;19.10;99.90;;;;;;2106762;28;20024;-69
2021/07/09 03:57:24;;;;;;;14.68;13.27;;;19.10;99.90;;;;;;2107007;28;20517;-69
2021/07/09 03:58:24;;;;;;;13.52;12.07;;;19.10;99.90;;;;;;2106667;28;20440;-69
2021/07/09 03:59:25;;;;;;;13.10;11.90;;;19.10;99.90;;;;;;2107157;28;20104;-69
2021/07/09 04:00:26;;;;;;;14.70;12.65;;;19.10;99.90;;;;;;2106705;28;20419;-69
2021/07/09 04:01:26;;;;;;;12.50;11.13;;;19.00;99.90;;;;;;2106727;28;20028;-69
2021/07/09 04:02:27;;;;;;;14.32;12.98;;;19.10;99.90;;;;;;2106523;28;20030;-69
2021/07/09 04:03:27;;;;;;;13.40;12.00;;;19.00;99.90;;;;;;2106580;28;20031;-69
2021/07/09 04:04:28;;;;;;;12.10;10.95;;;19.10;99.90;;;;;;2106720;28;20040;-69
2021/07/09 04:05:28;;;;;;;14.20;12.80;;;19.10;99.90;;;;;;2106775;28;20031;-69
2021/07/09 04:06:29;;;;;;;12.18;11.07;;;19.00;99.90;;;;;;2106795;28;20028;-69
2021/07/09 04:07:29;;;;;;;14.40;13.00;;;19.10;99.90;;;;;;2106874;28;20471;-69
2021/07/09 04:08:30;;;;;;;15.35;13.73;;;19.10;99.90;;;;;;2106682;28;20446;-69
2021/07/09 04:09:31;;;;;;;13.45;12.32;;;19.10;99.90;;;;;;2106759;28;20494;-69
2021/07/09 04:10:31;;;;;;;14.80;12.95;;;19.00;99.90;;;;;;2106718;28;20361;-69
2021/07/09 04:11:32;;;;;;;15.52;13.93;;;19.10;99.90;;;;;;2106427;28;20108;-69
2021/07/09 04:12:33;;;;;;;16.45;14.55;;;19.00;99.90;;;;;;2106629;28;20028;-69
2021/07/09 04:13:33;;;;;;;15.45;13.85;;;19.10;99.90;;;;;;2106985;28;20426;-69
2021/07/09 04:14:34;;;;;;;16.83;15.13;;;19.10;99.90;;;;;;2106672;28;20107;-69
2021/07/09 04:15:34;;;;;;;13.10;11.70;;;19.00;99.90;;;;;;2106394;28;20031;-69
2021/07/09 04:16:35;;;;;;;14.02;12.48;;;19.10;99.90;;;;;;2106497;28;20020;-69
2021/07/09 04:17:35;;;;;;;15.75;14.15;;;19.10;99.90;;;;;;2106725;28;20066;-69
2021/07/09 04:18:36;;;;;;;16.00;14.30;;;19.00;99.90;;;;;;2106622;28;20022;-69
2021/07/09 04:19:36;;;;;;;15.15;13.75;;;19.10;99.90;;;;;;2106840;28;20050;-69
2021/07/09 04:20:37;;;;;;;14.80;13.30;;;19.10;99.90;;;;;;2106745;28;20050;-69
2021/07/09 04:21:38;;;;;;;18.30;14.60;;;19.10;99.90;;;;;;2106099;28;20483;-69
2021/07/09 04:22:39;;;;;;;14.77;13.38;;;19.10;99.90;;;;;;2106771;28;20032;-69
2021/07/09 04:23:39;;;;;;;13.82;12.52;;;19.10;99.90;;;;;;2105889;28;20435;-69
2021/07/09 04:24:40;;;;;;;17.00;13.88;;;19.10;99.90;;;;;;2106329;28;20028;-69
2021/07/09 04:25:41;;;;;;;15.95;14.10;;;19.10;99.90;;;;;;2106623;28;20024;-69
2021/07/09 04:26:42;;;;;;;17.08;14.05;;;19.10;99.90;;;;;;2106646;28;20051;-69
2021/07/09 04:27:42;;;;;;;15.05;13.75;;;19.10;99.90;;;;;;2106652;28;20462;-69
2021/07/09 04:28:43;;;;;;;15.13;13.63;;;19.10;99.90;;;;;;2106818;28;20504;-69
2021/07/09 04:29:43;;;;;;;16.42;14.73;;;19.10;99.90;;;;;;2106460;28;20502;-69
2021/07/09 04:30:44;;;;;;;15.50;13.90;;;19.10;99.90;;;;;;2106736;28;20078;-69
2021/07/09 04:31:45;;;;;;;17.52;13.90;;;19.20;99.90;;;;;;2105788;28;20078;-69
2021/07/09 04:32:45;;;;;;;19.42;16.35;;;19.10;99.90;;;;;;2106803;28;20463;-69
2021/07/09 04:33:49;;;;;;;17.27;15.57;;;19.10;99.90;;;;;;2106430;28;20031;-69
2021/07/09 04:34:50;;;;;;;17.20;15.50;;;19.20;99.90;;;;;;2106680;28;20028;-69
2021/07/09 04:35:51;;;;;;;15.88;14.20;;;19.20;99.90;;;;;;2106383;28;20028;-69
2021/07/09 04:36:51;;;;;;;20.30;15.27;;;19.20;99.90;;;;;;2106738;28;20375;-69
2021/07/09 04:37:52;;;;;;;16.90;15.00;;;19.20;99.90;;;;;;2106533;28;20425;-69
2021/07/09 04:38:52;;;;;;;17.85;15.98;;;19.20;99.90;;;;;;2106718;28;20124;-69
2021/07/09 04:39:53;;;;;;;18.83;16.90;;;19.20;99.90;;;;;;2106383;28;20455;-69
2021/07/09 04:40:53;;;;;;;18.88;17.10;;;19.20;99.90;;;;;;2106505;28;20039;-69
2021/07/09 04:41:54;;;;;;;19.38;16.90;;;19.20;99.90;;;;;;2105980;28;20059;-69
2021/07/09 04:42:54;;;;;;;20.10;18.00;;;19.20;99.90;;;;;;2106570;28;20055;-69
2021/07/09 04:43:55;;;;;;;21.90;19.30;;;19.20;99.90;;;;;;2106426;28;20614;-69
2021/07/09 04:44:56;;;;;;;21.90;18.33;;;19.20;99.90;;;;;;2106201;28;20023;-69
2021/07/09 04:45:56;;;;;;;20.23;18.05;;;19.20;99.90;;;;;;2106214;28;20031;-69
2021/07/09 04:46:57;;;;;;;25.08;18.73;;;19.20;99.90;;;;;;2106577;28;20020;-69
2021/07/09 04:47:58;;;;;;;20.52;18.45;;;19.20;99.90;;;;;;2106529;28;20049;-70
2021/07/09 04:48:58;;;;;;;19.73;17.73;;;19.20;99.90;;;;;;2105667;28;20431;-69
2021/07/09 04:49:59;;;;;;;19.73;17.80;;;19.20;99.90;;;;;;2105647;28;20026;-69
2021/07/09 04:51:01;;;;;;;20.45;18.45;;;19.20;99.90;;;;;;2106470;28;20031;-69
2021/07/09 04:52:02;;;;;;;20.05;17.85;;;19.30;99.90;;;;;;2105800;28;20086;-69
2021/07/09 04:53:03;;;;;;;19.95;17.92;;;19.30;99.90;;;;;;2106650;28;20012;-69
2021/07/09 04:54:04;;;;;;;20.05;17.98;;;19.30;99.90;;;;;;2106333;28;20032;-69
2021/07/09 04:55:05;;;;;;;20.27;18.13;;;19.30;99.90;;;;;;2106667;28;20017;-69
2021/07/09 04:56:06;;;;;;;19.95;17.90;;;19.30;99.90;;;;;;2105945;28;20017;-69
2021/07/09 04:57:07;;;;;;;19.90;17.92;;;19.30;99.90;;;;;;2106556;28;20073;-69
2021/07/09 04:58:07;;;;;;;19.67;17.65;;;19.30;99.90;;;;;;2106565;28;20397;-69
2021/07/09 04:59:08;;;;;;;21.58;19.40;;;19.30;99.90;;;;;;2106502;28;20502;-69
2021/07/09 05:00:09;;;;;;;20.45;17.92;;;19.30;99.90;;;;;;2106333;28;20012;-69
2021/07/09 05:01:10;;;;;;;20.52;18.45;;;19.40;99.90;;;;;;2106265;28;20103;-69
2021/07/09 05:02:11;;;;;;;22.55;20.30;;;19.40;99.90;;;;;;2105364;28;20111;-69
2021/07/09 05:03:12;;;;;;;20.88;18.77;;;19.40;99.90;;;;;;2105736;28;20027;-69
2021/07/09 05:04:12;;;;;;;20.55;18.25;;;19.40;99.90;;;;;;2106470;28;20107;-69
2021/07/09 05:05:15;;;;;;;21.20;19.13;;;19.40;99.90;;;;;;2106154;28;20028;-69
2021/07/09 05:06:16;;;;;;;19.35;17.40;;;19.40;99.90;;;;;;2106572;28;20028;-69
2021/07/09 05:07:16;;;;;;;20.50;18.58;;;19.40;99.90;;;;;;2106042;28;20031;-69
2021/07/09 05:08:17;;;;;;;23.80;18.63;;;19.40;99.90;;;;;;2106326;28;20036;-70
2021/07/09 05:09:17;;;;;;;22.77;19.70;;;19.40;99.90;;;;;;2106016;28;20052;-69
2021/07/09 05:10:18;;;;;;;20.45;17.60;;;19.40;99.90;;;;;;2106425;28;20024;-70